Time;durP1;ratioP1;P1;durP2;ratioP2;P2;SDS_P1;SDS_P2;PMS_P1;PMS_P2;Temp;Humidity;BMP_temperature;BMP_pressure;BME280_temperature;BME280_humidity;BME280_pressure;Samples;Min_cycle;Max_cycle;Signal;HPM_P1;HPM_P2
2023/10/24 00:00:12;;;;;;;0.00;0.00;;;;;;;10.91;96.59;98948.72;5099792;28;20104;-76
2023/10/24 00:02:38;;;;;;;0.00;0.00;;;;;;;10.90;97.20;98949.81;5076858;28;20386;-76
2023/10/24 00:05:04;;;;;;;0.00;0.00;;;;;;;10.88;97.27;98943.03;5091962;28;20047;-76
2023/10/24 00:07:29;;;;;;;0.00;0.00;;;;;;;10.86;97.04;98945.28;5085192;28;20484;-74
2023/10/24 00:09:55;;;;;;;0.00;0.00;;;;;;;10.89;96.75;98944.66;5062228;28;20027;-74
2023/10/24 00:12:20;;;;;;;0.00;0.00;;;;;;;10.95;97.36;98959.84;5101783;28;20043;-74
2023/10/24 00:14:46;;;;;;;0.03;0.03;;;;;;;10.86;96.99;98940.59;5081666;28;20028;-74
2023/10/24 00:17:11;;;;;;;0.00;0.00;;;;;;;10.96;97.31;98965.00;5103739;28;20059;-75
2023/10/24 00:19:37;;;;;;;0.10;0.10;;;;;;;10.92;97.15;98958.56;5101236;28;20073;-75
2023/10/24 00:22:02;;;;;;;0.00;0.00;;;;;;;10.90;97.05;98958.03;5084399;28;20101;-74
2023/10/24 00:24:28;;;;;;;0.00;0.00;;;;;;;10.93;96.94;98960.16;5100113;28;20043;-75
2023/10/24 00:26:55;;;;;;;0.00;0.00;;;;;;;10.89;97.60;98959.13;5098440;28;20557;-75
2023/10/24 00:29:21;;;;;;;0.00;0.00;;;;;;;10.88;97.46;98963.00;5090586;28;20380;-75
2023/10/24 00:31:46;;;;;;;0.00;0.00;;;;;;;10.86;97.83;98959.75;5082282;28;20028;-73
2023/10/24 00:34:12;;;;;;;0.00;0.00;;;;;;;10.77;97.89;98958.84;5103945;28;20027;-76
2023/10/24 00:36:39;;;;;;;0.00;0.00;;;;;;;10.78;97.94;98971.41;5075497;28;20111;-75
2023/10/24 00:39:06;;;;;;;0.00;0.00;;;;;;;10.71;97.86;98962.78;5098221;28;20448;-74
2023/10/24 00:41:31;;;;;;;0.00;0.00;;;;;;;10.64;98.22;98955.81;5096783;28;20023;-75
2023/10/24 00:43:57;;;;;;;0.00;0.00;;;;;;;10.65;98.44;98962.06;5089611;28;20028;-75
2023/10/24 00:46:23;;;;;;;0.00;0.00;;;;;;;10.58;98.90;98940.59;5101718;28;20039;-75
2023/10/24 00:48:49;;;;;;;0.00;0.00;;;;;;;10.56;98.68;98945.56;5067187;28;20023;-75
2023/10/24 00:51:15;;;;;;;0.00;0.00;;;;;;;10.61;98.59;98956.38;5081288;28;20013;-75
2023/10/24 00:53:41;;;;;;;0.00;0.00;;;;;;;10.50;98.88;98930.38;5103810;28;20081;-75
2023/10/24 00:56:08;;;;;;;0.00;0.00;;;;;;;10.49;99.22;98931.47;5097331;28;20042;-74
2023/10/24 00:58:36;;;;;;;0.00;0.00;;;;;;;10.51;98.98;98934.72;5093350;28;20118;-74
2023/10/24 01:01:04;;;;;;;0.00;0.00;;;;;;;10.53;99.51;98939.88;5101038;28;20115;-75
2023/10/24 01:03:30;;;;;;;0.00;0.00;;;;;;;10.50;99.76;98927.66;5098557;28;20030;-75
2023/10/24 01:05:57;;;;;;;0.00;0.00;;;;;;;10.51;99.54;98934.72;5057783;28;20024;-76
2023/10/24 01:08:23;;;;;;;0.00;0.00;;;;;;;10.48;99.04;98921.66;5105792;28;20027;-75
2023/10/24 01:10:48;;;;;;;0.00;0.00;;;;;;;10.40;99.39;98916.91;5102182;28;20166;-76
2023/10/24 01:13:14;;;;;;;0.00;0.00;;;;;;;10.42;99.82;98928.34;5085663;28;20051;-75
2023/10/24 01:15:39;;;;;;;0.00;0.00;;;;;;;10.47;99.62;98922.78;5100497;28;20032;-75
2023/10/24 01:18:05;;;;;;;0.00;0.00;;;;;;;10.45;100.00;98919.53;5110289;28;20028;-76
2023/10/24 01:20:30;;;;;;;0.00;0.00;;;;;;;10.56;100.00;98922.91;5097761;28;20040;-75
2023/10/24 01:22:56;;;;;;;0.00;0.00;;;;;;;10.54;99.75;98912.28;5108054;28;20023;-74
2023/10/24 01:25:25;;;;;;;0.00;0.00;;;;;;;10.60;99.42;98929.34;5097527;28;20038;-75
2023/10/24 01:27:55;;;;;;;0.00;0.00;;;;;;;10.61;99.66;98926.31;5104418;28;20473;-75
2023/10/24 01:30:20;;;;;;;0.00;0.00;;;;;;;10.58;99.61;98921.47;5102690;27;20032;-73
2023/10/24 01:32:46;;;;;;;0.00;0.00;;;;;;;10.53;99.44;98910.63;5106337;28;20104;-74
2023/10/24 01:35:12;;;;;;;0.00;0.00;;;;;;;10.55;99.66;98905.66;5101497;28;20028;-75
2023/10/24 01:37:37;;;;;;;0.00;0.00;;;;;;;10.57;99.88;98908.09;5099008;28;20032;-75
2023/10/24 01:40:04;;;;;;;0.00;0.00;;;;;;;10.63;99.85;98915.06;5076485;28;20035;-76
2023/10/24 01:42:30;;;;;;;0.00;0.00;;;;;;;10.46;99.50;98882.91;5098424;28;20088;-75
2023/10/24 01:44:55;;;;;;;0.00;0.00;;;;;;;10.65;100.00;98900.00;5097130;28;20020;-73
2023/10/24 01:47:21;;;;;;;0.00;0.00;;;;;;;10.75;100.00;98890.78;5090443;28;20035;-75
2023/10/24 01:49:46;;;;;;;0.00;0.00;;;;;;;10.82;99.23;98880.25;5101231;28;20095;-73
2023/10/24 01:52:11;;;;;;;0.00;0.00;;;;;;;10.82;99.09;98890.41;5100803;28;20039;-75
2023/10/24 01:54:37;;;;;;;0.00;0.00;;;;;;;10.78;99.19;98879.25;5101319;28;20498;-72
2023/10/24 01:57:02;;;;;;;0.00;0.00;;;;;;;10.82;99.61;98863.06;5091075;28;20019;-73
2023/10/24 01:59:30;;;;;;;0.00;0.00;;;;;;;10.88;98.86;98861.81;5105773;28;20031;-75
2023/10/24 02:01:55;;;;;;;0.00;0.00;;;;;;;10.83;99.25;98859.19;5098104;28;20032;-73
2023/10/24 02:04:21;;;;;;;0.00;0.00;;;;;;;10.65;98.56;98859.00;5082944;28;20039;-74
2023/10/24 02:06:46;;;;;;;0.00;0.00;;;;;;;10.57;99.20;98873.41;5081875;28;20032;-74
2023/10/24 02:09:12;;;;;;;0.00;0.00;;;;;;;10.49;99.70;98879.56;5084044;28;20513;-74
2023/10/24 02:11:37;;;;;;;0.00;0.00;;;;;;;10.41;99.85;98874.78;5082353;28;20024;-74
2023/10/24 02:14:04;;;;;;;0.00;0.00;;;;;;;10.29;99.85;98867.88;5096030;28;20028;-74
2023/10/24 02:16:29;;;;;;;0.00;0.00;;;;;;;10.20;100.00;98864.22;5101525;28;20027;-75
2023/10/24 02:18:54;;;;;;;0.00;0.00;;;;;;;10.11;100.00;98855.09;5080922;28;20031;-75
2023/10/24 02:21:20;;;;;;;0.00;0.00;;;;;;;10.09;100.00;98869.06;5081083;28;20557;-75
2023/10/24 02:23:45;;;;;;;0.00;0.00;;;;;;;10.05;100.00;98872.69;5055278;28;20042;-74
2023/10/24 02:26:14;;;;;;;0.00;0.00;;;;;;;10.03;100.00;98880.38;5050480;28;20023;-74
2023/10/24 02:28:43;;;;;;;0.00;0.00;;;;;;;9.96;100.00;98865.19;5068652;28;20032;-75
2023/10/24 02:31:10;;;;;;;0.00;0.00;;;;;;;9.89;100.00;98869.44;5082060;28;20111;-75
2023/10/24 02:33:36;;;;;;;0.00;0.00;;;;;;;9.81;100.00;98868.16;5107342;28;20480;-75
2023/10/24 02:36:09;;;;;;;0.00;0.00;;;;;;;9.82;100.00;98872.53;5093644;28;20035;-74
2023/10/24 02:38:34;;;;;;;0.00;0.00;;;;;;;9.73;100.00;98866.16;5087771;28;20072;-75
2023/10/24 02:41:00;;;;;;;0.00;0.00;;;;;;;9.75;100.00;98874.84;5098954;28;20029;-74
2023/10/24 02:43:26;;;;;;;0.00;0.00;;;;;;;9.71;100.00;98879.25;5093915;28;21077;-74
2023/10/24 02:45:52;;;;;;;0.00;0.00;;;;;;;9.69;100.00;98882.28;5102817;28;20035;-74
2023/10/24 02:48:17;;;;;;;0.00;0.00;;;;;;;9.75;100.00;98878.38;5095196;28;20015;-74
2023/10/24 02:50:43;;;;;;;0.00;0.00;;;;;;;9.71;100.00;98874.63;5072624;28;20024;-73
2023/10/24 02:53:09;;;;;;;0.00;0.00;;;;;;;9.75;100.00;98875.66;5080721;28;20064;-73
2023/10/24 02:55:34;;;;;;;0.00;0.00;;;;;;;9.70;100.00;98864.00;5100648;28;20047;-73
2023/10/24 02:58:00;;;;;;;0.00;0.00;;;;;;;9.67;100.00;98851.78;5096026;28;20034;-74
2023/10/24 03:00:25;;;;;;;0.00;0.00;;;;;;;9.66;100.00;98862.97;5100144;28;20040;-74
2023/10/24 03:02:51;;;;;;;0.00;0.00;;;;;;;9.68;100.00;98860.75;5084058;28;20065;-74
2023/10/24 03:05:16;;;;;;;0.00;0.00;;;;;;;9.55;100.00;98849.50;5095676;28;20032;-74
2023/10/24 03:07:41;;;;;;;0.00;0.00;;;;;;;9.53;100.00;98862.63;5096769;28;20484;-74
2023/10/24 03:10:07;;;;;;;0.00;0.00;;;;;;;9.39;100.00;98850.88;5098759;28;20381;-74
2023/10/24 03:12:36;;;;;;;0.00;0.00;;;;;;;9.22;100.00;98835.81;5091354;28;20462;-75
2023/10/24 03:15:02;;;;;;;0.00;0.00;;;;;;;9.35;100.00;98856.09;5102613;28;20081;-75
2023/10/24 03:17:27;;;;;;;0.00;0.00;;;;;;;9.38;100.00;98865.59;5099679;28;20020;-75
2023/10/24 03:19:52;;;;;;;0.00;0.00;;;;;;;9.30;100.00;98855.34;5104095;28;20063;-75
2023/10/24 03:22:18;;;;;;;0.00;0.00;;;;;;;9.24;100.00;98849.97;5082136;28;20028;-75
2023/10/24 03:24:44;;;;;;;0.00;0.00;;;;;;;9.25;100.00;98867.94;5071354;28;20058;-75
2023/10/24 03:27:12;;;;;;;0.00;0.00;;;;;;;9.20;100.00;98854.41;5099093;27;20039;-75
2023/10/24 03:29:40;;;;;;;0.00;0.00;;;;;;;9.28;100.00;98858.38;5077927;28;20051;-74
2023/10/24 03:32:06;;;;;;;0.00;0.00;;;;;;;9.37;100.00;98869.44;5089694;28;20046;-75
2023/10/24 03:34:34;;;;;;;0.00;0.00;;;;;;;9.41;100.00;98865.00;5095919;28;20016;-74
2023/10/24 03:36:59;;;;;;;0.00;0.00;;;;;;;9.46;100.00;98862.19;5073048;28;20039;-74
2023/10/24 03:39:25;;;;;;;0.00;0.00;;;;;;;9.55;100.00;98870.50;5071759;28;20080;-73
2023/10/24 03:41:50;;;;;;;0.00;0.00;;;;;;;9.57;100.00;98882.75;5094758;28;20035;-74
2023/10/24 03:44:16;;;;;;;0.00;0.00;;;;;;;9.50;100.00;98884.25;5092313;28;20066;-75
2023/10/24 03:46:41;;;;;;;0.00;0.00;;;;;;;9.51;100.00;98889.41;5085918;28;20036;-74
2023/10/24 03:49:07;;;;;;;0.00;0.00;;;;;;;9.47;100.00;98880.19;5080380;28;20035;-75
2023/10/24 03:51:32;;;;;;;0.00;0.00;;;;;;;9.46;100.00;98870.38;5097575;28;20027;-74
2023/10/24 03:53:57;;;;;;;0.00;0.00;;;;;;;9.58;100.00;98878.94;5098853;28;20032;-74
2023/10/24 03:56:23;;;;;;;0.00;0.00;;;;;;;9.65;100.00;98877.72;5087718;28;20024;-74
2023/10/24 03:58:48;;;;;;;0.00;0.00;;;;;;;9.65;100.00;98880.47;5060358;28;20031;-75
2023/10/24 04:01:16;;;;;;;0.00;0.00;;;;;;;9.65;100.00;98885.91;5067443;28;20474;-74
2023/10/24 04:03:42;;;;;;;0.00;0.00;;;;;;;9.64;100.00;98881.56;5086966;28;20027;-74
2023/10/24 04:06:11;;;;;;;0.00;0.00;;;;;;;9.61;100.00;98886.50;5068114;28;20035;-75
2023/10/24 04:08:37;;;;;;;0.00;0.00;;;;;;;9.48;100.00;98875.56;5097311;28;20020;-74
2023/10/24 04:11:03;;;;;;;0.00;0.00;;;;;;;9.47;100.00;98890.31;5078685;28;20473;-75
2023/10/24 04:13:28;;;;;;;0.00;0.00;;;;;;;9.34;100.00;98875.47;5103085;28;20035;-74
2023/10/24 04:15:58;;;;;;;0.00;0.00;;;;;;;9.24;100.00;98877.25;5093774;28;20482;-74
2023/10/24 04:18:24;;;;;;;0.00;0.00;;;;;;;9.12;100.00;98867.91;5092047;28;20438;-74
2023/10/24 04:20:49;;;;;;;0.00;0.00;;;;;;;9.06;100.00;98883.50;5068401;28;20100;-75
2023/10/24 04:23:15;;;;;;;0.00;0.00;;;;;;;8.98;100.00;98876.81;5090743;28;20111;-74
2023/10/24 04:25:40;;;;;;;0.00;0.00;;;;;;;8.98;100.00;98884.16;5080141;28;20243;-75
2023/10/24 04:28:06;;;;;;;0.00;0.00;;;;;;;8.95;100.00;98880.13;5089257;28;20035;-74
2023/10/24 04:30:31;;;;;;;0.00;0.00;;;;;;;8.93;100.00;98885.03;5098321;28;20158;-75
2023/10/24 04:32:57;;;;;;;0.10;0.10;;;;;;;8.89;100.00;98882.09;5091649;28;20198;-74
2023/10/24 04:35:22;;;;;;;0.00;0.00;;;;;;;8.83;100.00;98877.00;5099123;28;20059;-74
2023/10/24 04:37:47;;;;;;;0.00;0.00;;;;;;;8.80;100.00;98875.66;5067643;28;20028;-74
2023/10/24 04:40:13;;;;;;;0.00;0.00;;;;;;;8.78;100.00;98883.31;5079275;28;20695;-74
2023/10/24 04:42:39;;;;;;;0.00;0.00;;;;;;;8.70;100.00;98884.78;5094847;28;20031;-74
2023/10/24 04:45:05;;;;;;;0.00;0.00;;;;;;;8.69;100.00;98887.81;5075476;28;20032;-74
2023/10/24 04:47:30;;;;;;;0.10;0.10;;;;;;;8.65;100.00;98887.56;5082199;28;20640;-74
2023/10/24 04:49:56;;;;;;;0.00;0.00;;;;;;;8.61;100.00;98885.72;5101911;28;20031;-76
2023/10/24 04:52:21;;;;;;;0.00;0.00;;;;;;;8.60;100.00;98879.47;5097996;28;20024;-74
2023/10/24 04:54:47;;;;;;;0.00;0.00;;;;;;;8.60;100.00;98884.91;5076536;28;20027;-74
2023/10/24 04:57:12;;;;;;;0.00;0.00;;;;;;;8.52;100.00;98878.16;5066380;28;20574;-74
2023/10/24 04:59:38;;;;;;;0.00;0.00;;;;;;;8.50;100.00;98891.28;5090237;28;20163;-72
2023/10/24 05:02:05;;;;;;;0.00;0.00;;;;;;;8.47;100.00;98891.88;5098713;28;20028;-74
2023/10/24 05:04:31;;;;;;;0.00;0.00;;;;;;;8.41;100.00;98871.22;5101508;28;20031;-75
2023/10/24 05:06:56;;;;;;;0.00;0.00;;;;;;;8.38;100.00;98877.22;5084013;28;20028;-75
2023/10/24 05:09:22;;;;;;;0.00;0.00;;;;;;;8.38;100.00;98882.66;5095815;28;20032;-76
2023/10/24 05:11:47;;;;;;;0.00;0.00;;;;;;;8.36;100.00;98880.22;5080934;28;20074;-73
2023/10/24 05:14:13;;;;;;;0.00;0.00;;;;;;;8.38;100.00;98877.22;5090352;28;20385;-75
2023/10/24 05:16:39;;;;;;;0.00;0.00;;;;;;;8.52;100.00;98886.34;5092413;28;20039;-74
2023/10/24 05:19:05;;;;;;;0.00;0.00;;;;;;;8.66;100.00;98878.28;5097980;28;20039;-74
2023/10/24 05:21:32;;;;;;;0.00;0.00;;;;;;;8.78;100.00;98875.16;5096193;28;20039;-74
2023/10/24 05:23:58;;;;;;;0.00;0.00;;;;;;;8.85;100.00;98886.50;5092978;28;20110;-74
2023/10/24 05:26:24;;;;;;;0.00;0.00;;;;;;;8.85;100.00;98877.53;5104578;28;20028;-75
2023/10/24 05:28:50;;;;;;;0.00;0.00;;;;;;;8.91;100.00;98879.88;5088250;28;20027;-74
2023/10/24 05:31:15;;;;;;;0.00;0.00;;;;;;;8.97;100.00;98888.81;5097049;28;20093;-74
2023/10/24 05:33:41;;;;;;;0.00;0.00;;;;;;;8.93;100.00;98878.78;5094157;28;20169;-73
2023/10/24 05:36:06;;;;;;;0.00;0.00;;;;;;;8.93;100.00;98870.59;5072542;28;20496;-74
2023/10/24 05:38:32;;;;;;;0.00;0.00;;;;;;;8.99;100.00;98880.34;5085089;28;20028;-74
2023/10/24 05:40:58;;;;;;;0.00;0.00;;;;;;;9.07;100.00;98882.41;5062510;28;20556;-74
2023/10/24 05:43:24;;;;;;;0.00;0.00;;;;;;;9.06;100.00;98878.06;5085580;28;20103;-74
2023/10/24 05:45:50;;;;;;;0.00;0.00;;;;;;;9.06;100.00;98878.84;5105724;28;20449;-75
2023/10/24 05:48:15;;;;;;;0.00;0.00;;;;;;;9.05;100.00;98868.25;5096111;28;20030;-74
2023/10/24 05:50:43;;;;;;;0.00;0.00;;;;;;;9.05;100.00;98879.16;5081606;28;20737;-75
2023/10/24 05:53:08;;;;;;;0.00;0.00;;;;;;;9.08;100.00;98881.28;5092723;27;20031;-73
2023/10/24 05:55:34;;;;;;;0.00;0.00;;;;;;;9.05;100.00;98868.25;5100825;28;20031;-73
2023/10/24 05:57:59;;;;;;;0.00;0.00;;;;;;;9.14;100.00;98882.88;5096653;28;20026;-73
2023/10/24 06:00:25;;;;;;;0.00;0.00;;;;;;;9.16;100.00;98886.09;5092225;28;20032;-75
2023/10/24 06:02:50;;;;;;;0.00;0.00;;;;;;;9.16;100.00;98880.63;5088640;28;20024;-74
2023/10/24 06:05:15;;;;;;;0.00;0.00;;;;;;;9.13;100.00;98881.22;5065333;28;20028;-74
2023/10/24 06:07:41;;;;;;;0.00;0.00;;;;;;;9.16;100.00;98877.91;5083968;28;20035;-78
2023/10/24 06:10:07;;;;;;;0.00;0.00;;;;;;;9.20;100.00;98870.78;5087949;28;20058;-76
2023/10/24 06:12:41;;;;;;;0.00;0.00;;;;;;;9.24;100.00;98873.69;5062849;28;20063;-77
2023/10/24 06:15:12;;;;;;;;;;;;;;;9.28;100.00;98871.22;5107023;28;20024;-77
2023/10/24 06:17:38;;;;;;;0.00;0.00;;;;;;;9.22;100.00;98870.47;5106306;28;19908;-78
2023/10/24 06:20:04;;;;;;;0.00;0.00;;;;;;;9.14;100.00;98869.22;5099804;28;20124;-81
2023/10/24 06:22:29;;;;;;;0.00;0.00;;;;;;;8.97;100.00;98882.56;5090455;28;20031;-79
2023/10/24 06:24:56;;;;;;;0.00;0.00;;;;;;;8.75;100.00;98867.56;5071276;28;20051;-78
2023/10/24 06:27:22;;;;;;;0.00;0.00;;;;;;;8.63;100.00;98872.59;5077365;28;21243;-80
2023/10/24 06:29:50;;;;;;;0.00;0.00;;;;;;;8.49;100.00;98873.31;5051528;28;20033;-78
2023/10/24 06:32:15;;;;;;;0.00;0.00;;;;;;;8.39;100.00;98879.63;5076025;28;20713;-77
2023/10/24 06:34:40;;;;;;;0.00;0.00;;;;;;;8.30;100.00;98878.66;5068466;28;20123;-78
2023/10/24 06:37:06;;;;;;;0.00;0.00;;;;;;;8.19;100.00;98869.78;5061596;28;20027;-80
2023/10/24 06:39:31;;;;;;;0.00;0.00;;;;;;;8.18;100.00;98889.94;5079745;28;20477;-77
2023/10/24 06:41:57;;;;;;;0.00;0.00;;;;;;;8.09;100.00;98880.78;5089076;28;20386;-78
2023/10/24 06:44:22;;;;;;;0.00;0.00;;;;;;;8.12;100.00;98896.56;5084624;28;20024;-76
2023/10/24 06:46:47;;;;;;;0.00;0.00;;;;;;;8.06;100.00;98886.81;5078180;28;20051;-76
2023/10/24 06:49:13;;;;;;;0.00;0.00;;;;;;;8.06;100.00;98888.72;5086222;28;20035;-76
2023/10/24 06:51:38;;;;;;;0.00;0.00;;;;;;;8.10;100.00;98904.19;5061883;28;20032;-76
2023/10/24 06:54:04;;;;;;;0.00;0.00;;;;;;;8.04;100.00;98899.88;5086031;28;20023;-76
2023/10/24 06:56:33;;;;;;;0.00;0.00;;;;;;;7.94;100.00;98883.66;5090489;28;20024;-74
2023/10/24 06:59:01;;;;;;;0.00;0.00;;;;;;;7.76;100.00;98866.94;5066481;28;20142;-72
2023/10/24 07:01:26;;;;;;;0.00;0.00;;;;;;;7.81;100.00;98885.94;5100378;28;20034;-78
2023/10/24 07:03:55;;;;;;;0.00;0.00;;;;;;;7.81;100.00;98875.06;5063356;28;20399;-74
2023/10/24 07:06:21;;;;;;;0.00;0.00;;;;;;;7.86;100.00;98866.84;5102558;28;20032;-75
2023/10/24 07:08:56;;;;;;;0.00;0.00;;;;;;;7.85;100.00;98867.91;5084616;28;20035;-74
2023/10/24 07:11:24;;;;;;;0.00;0.00;;;;;;;7.99;100.00;98891.78;5083545;28;20469;-75
2023/10/24 07:13:50;;;;;;;0.00;0.00;;;;;;;7.90;100.00;98893.47;5092273;28;20028;-73
2023/10/24 07:16:23;;;;;;;0.00;0.00;;;;;;;7.86;100.00;98888.59;5092536;28;20046;-74
2023/10/24 07:18:51;;;;;;;0.05;0.05;;;;;;;7.95;100.00;98890.72;5085969;28;20039;-74
2023/10/24 07:21:17;;;;;;;0.00;0.00;;;;;;;7.98;100.00;98873.81;5095003;28;20386;-73
2023/10/24 07:23:42;;;;;;;0.00;0.00;;;;;;;8.26;100.00;98871.34;5100158;28;20028;-74
2023/10/24 07:26:08;;;;;;;0.00;0.00;;;;;;;8.72;100.00;98873.59;5096855;28;20447;-75
2023/10/24 07:28:41;;;;;;;0.00;0.00;;;;;;;8.94;100.00;98877.69;5090804;28;20343;-75
2023/10/24 07:31:09;;;;;;;0.00;0.00;;;;;;;9.06;100.00;98886.25;5095562;28;20027;-73
2023/10/24 07:33:34;;;;;;;0.00;0.00;;;;;;;9.14;100.00;98901.94;5082996;28;20027;-75
2023/10/24 07:36:05;;;;;;;0.00;0.00;;;;;;;9.17;100.00;98906.81;5091265;28;20469;-74
2023/10/24 07:38:40;;;;;;;;;;;;;;;;;;;;;
2023/10/24 07:41:06;;;;;;;0.00;0.00;;;;;;;9.14;100.00;98882.88;5091821;28;20528;-74
2023/10/24 07:43:32;;;;;;;0.00;0.00;;;;;;;9.34;100.00;98886.38;5090554;28;20024;-73
2023/10/24 07:46:00;;;;;;;0.00;0.00;;;;;;;9.62;100.00;98898.22;5091584;28;20039;-74
2023/10/24 07:48:25;;;;;;;0.00;0.00;;;;;;;9.86;100.00;98906.31;5096444;28;20209;-75
2023/10/24 07:50:52;;;;;;;0.00;0.00;;;;;;;10.03;100.00;98908.50;5094815;28;20122;-74
2023/10/24 07:53:26;;;;;;;0.00;0.00;;;;;;;10.23;100.00;98911.97;5095199;28;20032;-75
2023/10/24 07:56:00;;;;;;;0.00;0.00;;;;;;;10.26;100.00;98890.31;5087965;28;20036;-74
2023/10/24 07:58:32;;;;;;;0.00;0.00;;;;;;;10.44;100.00;98885.09;5094567;28;20119;-74
2023/10/24 08:00:58;;;;;;;0.00;0.00;;;;;;;10.80;99.92;98911.75;5090367;28;20055;-75
2023/10/24 08:03:23;;;;;;;0.00;0.00;;;;;;;11.03;99.41;98895.44;5095589;28;20059;-73
2023/10/24 08:05:49;;;;;;;0.10;0.10;;;;;;;11.80;97.99;98904.63;5093716;28;20685;-75
2023/10/24 08:08:24;;;;;;;0.00;0.00;;;;;;;13.01;93.06;98906.38;5095061;28;20116;-75
2023/10/24 08:10:49;;;;;;;0.00;0.00;;;;;;;14.14;85.76;98897.34;5073538;28;20789;-74
2023/10/24 08:13:17;;;;;;;0.00;0.00;;;;;;;15.16;79.41;98905.81;5095466;28;20023;-74
2023/10/24 08:15:43;;;;;;;0.00;0.00;;;;;;;16.19;75.20;98904.53;5077541;28;20028;-74
2023/10/24 08:18:17;;;;;;;0.00;0.00;;;;;;;17.35;70.09;98919.31;5091209;28;20019;-76
2023/10/24 08:20:42;;;;;;;0.00;0.00;;;;;;;17.88;65.91;98903.47;5104482;28;20039;-75
2023/10/24 08:23:07;;;;;;;0.00;0.00;;;;;;;18.68;63.46;98903.63;5062752;28;20055;-74
2023/10/24 08:25:35;;;;;;;0.00;0.00;;;;;;;19.90;59.37;98913.13;5090485;28;20769;-75
2023/10/24 08:28:01;;;;;;;0.00;0.00;;;;;;;21.15;55.46;98919.31;5089803;28;20181;-73
2023/10/24 08:30:28;;;;;;;0.00;0.00;;;;;;;22.23;52.74;98910.38;5097303;28;20516;-75
2023/10/24 08:32:54;;;;;;;0.00;0.00;;;;;;;23.65;49.29;98935.44;5098070;28;21139;-74
2023/10/24 08:35:19;;;;;;;0.00;0.00;;;;;;;24.66;47.23;98924.59;5099177;28;20031;-73
2023/10/24 08:37:45;;;;;;;0.00;0.00;;;;;;;26.26;44.15;98921.88;5093265;28;20030;-74
2023/10/24 08:40:11;;;;;;;0.00;0.00;;;;;;;27.33;41.19;98894.19;5091876;28;20108;-74
2023/10/24 08:42:41;;;;;;;0.00;0.00;;;;;;;28.14;39.52;98931.38;5096837;28;20019;-73
2023/10/24 08:45:08;;;;;;;0.00;0.00;;;;;;;28.30;38.80;98914.72;5083478;28;20051;-76
2023/10/24 08:47:34;;;;;;;0.00;0.00;;;;;;;28.49;37.71;98901.16;5096050;28;20085;-74
2023/10/24 08:50:03;;;;;;;0.00;0.00;;;;;;;29.25;37.20;98923.28;5100201;28;20046;-75
2023/10/24 08:52:31;;;;;;;0.00;0.00;;;;;;;30.05;35.93;98914.88;5085046;28;20027;-75
2023/10/24 08:55:06;;;;;;;0.00;0.00;;;;;;;30.28;34.45;98935.72;5083751;28;20028;-76
2023/10/24 08:57:42;;;;;;;0.00;0.00;;;;;;;30.10;33.91;98914.34;5095014;28;20119;-75
2023/10/24 09:00:10;;;;;;;0.00;0.00;;;;;;;30.81;33.46;98907.50;5094177;28;20016;-75
2023/10/24 09:02:42;;;;;;;0.00;0.00;;;;;;;32.07;32.43;98923.09;5103758;28;20023;-75
2023/10/24 09:05:15;;;;;;;0.00;0.00;;;;;;;33.00;31.02;98908.88;5085825;28;20024;-75
2023/10/24 09:07:41;;;;;;;0.00;0.00;;;;;;;34.10;29.97;98924.41;5096787;28;20036;-74
2023/10/24 09:10:07;;;;;;;0.00;0.00;;;;;;;34.34;28.37;98921.84;5092285;28;20031;-74
2023/10/24 09:12:56;;;;;;;0.00;0.00;;;;;;;34.38;27.85;98911.16;5097301;28;20035;-74
2023/10/24 09:15:22;;;;;;;0.00;0.00;;;;;;;34.89;27.20;98909.94;5094742;28;20462;-73
2023/10/24 09:17:47;;;;;;;0.00;0.00;;;;;;;35.52;27.32;98928.81;5093732;28;20024;-73
2023/10/24 09:20:13;;;;;;;0.00;0.00;;;;;;;36.43;26.55;98912.03;5105680;28;20043;-74
2023/10/24 09:22:41;;;;;;;0.00;0.00;;;;;;;37.03;25.09;98916.81;5098129;28;20571;-74
2023/10/24 09:25:10;;;;;;;0.00;0.00;;;;;;;36.55;25.49;98913.91;5091111;28;20032;-73
2023/10/24 09:27:35;;;;;;;0.00;0.00;;;;;;;36.79;25.30;98913.94;5096548;28;20035;-74
2023/10/24 09:30:35;;;;;;;0.00;0.00;;;;;;;37.40;24.35;98941.41;5094155;28;20028;-74
2023/10/24 09:33:00;;;;;;;0.00;0.00;;;;;;;37.94;24.44;98937.75;5091164;28;20036;-73
2023/10/24 09:35:27;;;;;;;0.00;0.00;;;;;;;38.20;23.82;98915.16;5088300;28;20062;-74
2023/10/24 09:37:53;;;;;;;0.00;0.00;;;;;;;38.88;22.70;98931.28;5097140;28;20417;-73
2023/10/24 09:40:18;;;;;;;0.00;0.00;;;;;;;39.45;22.58;98918.50;5090789;28;20032;-74
2023/10/24 09:42:50;;;;;;;0.00;0.00;;;;;;;40.25;21.40;98919.31;5094498;28;20027;-74
2023/10/24 09:45:17;;;;;;;0.00;0.00;;;;;;;40.41;20.71;98927.25;5087887;28;20070;-75
2023/10/24 09:47:54;;;;;;;;;;;;;;;;;;;;;
2023/10/24 09:50:23;;;;;;;0.00;0.00;;;;;;;41.75;21.26;98907.63;5086094;28;20028;-74
2023/10/24 09:52:49;;;;;;;0.00;0.00;;;;;;;41.79;21.39;98902.41;5104751;28;20054;-73
2023/10/24 09:55:16;;;;;;;0.00;0.00;;;;;;;42.79;20.76;98910.72;5085272;28;20438;-73
2023/10/24 09:57:44;;;;;;;0.00;0.00;;;;;;;43.88;20.46;98903.97;5098132;28;20039;-72
2023/10/24 10:00:13;;;;;;;0.00;0.00;;;;;;;43.76;19.81;98925.47;5094426;28;20023;-75
2023/10/24 10:02:44;;;;;;;0.00;0.00;;;;;;;43.71;19.54;98917.69;5097035;28;20027;-72
2023/10/24 10:05:12;;;;;;;0.00;0.00;;;;;;;43.92;19.74;98901.56;5088479;28;20035;-73
2023/10/24 10:07:48;;;;;;;0.00;0.00;;;;;;;44.69;19.02;98887.56;5097068;28;20015;-74
2023/10/24 10:10:15;;;;;;;0.00;0.00;;;;;;;45.92;18.48;98907.44;5096032;28;20020;-75
2023/10/24 10:12:41;;;;;;;0.00;0.00;;;;;;;46.38;18.04;98886.47;5096779;28;20164;-74
2023/10/24 10:15:24;;;;;;;0.00;0.00;;;;;;;46.70;17.27;98909.53;5084740;28;20032;-74
2023/10/24 10:18:04;;;;;;;0.00;0.00;;;;;;;46.61;17.56;98902.06;5090247;28;20512;-74
2023/10/24 10:21:09;;;;;;;0.00;0.00;;;;;;;47.19;16.28;98911.97;5093820;28;20032;-73
2023/10/24 10:24:32;;;;;;;0.00;0.00;;;;;;;46.56;15.54;98902.94;5103327;28;20027;-74
2023/10/24 10:27:03;;;;;;;0.00;0.00;;;;;;;46.29;15.48;98908.69;5037597;28;20024;-73
2023/10/24 10:29:58;;;;;;;0.00;0.00;;;;;;;46.78;15.64;98918.31;5034154;28;20024;-73
2023/10/24 10:32:47;;;;;;;0.00;0.00;;;;;;;45.72;16.38;98896.47;5091295;28;20030;-74
2023/10/24 10:35:20;;;;;;;0.00;0.00;;;;;;;44.69;15.58;98894.09;5098143;28;20067;-73
2023/10/24 10:38:23;;;;;;;0.00;0.00;;;;;;;44.40;16.08;98901.44;5087809;28;20036;-74
2023/10/24 10:40:52;;;;;;;0.00;0.00;;;;;;;42.36;16.81;98876.56;5091954;28;20019;-74
2023/10/24 10:43:33;;;;;;;0.00;0.00;;;;;;;42.81;17.53;98885.13;5093434;28;20122;-74
2023/10/24 10:46:22;;;;;;;0.00;0.00;;;;;;;44.48;16.71;98905.28;5095900;28;20103;-74
2023/10/24 10:48:51;;;;;;;0.00;0.00;;;;;;;47.09;14.90;98898.53;5093360;28;20043;-75
2023/10/24 10:51:25;;;;;;;0.00;0.00;;;;;;;49.43;13.88;98899.41;5102077;28;20031;-72
2023/10/24 10:54:12;;;;;;;0.00;0.00;;;;;;;49.91;12.79;98903.97;5096269;28;20389;-74
2023/10/24 10:56:39;;;;;;;0.00;0.00;;;;;;;49.39;12.54;98887.38;5101047;28;20496;-74
2023/10/24 10:59:08;;;;;;;0.00;0.00;;;;;;;47.12;12.74;98886.59;5097545;28;20035;-74
2023/10/24 11:01:39;;;;;;;0.00;0.00;;;;;;;45.01;14.75;98889.78;5093078;28;20055;-74
2023/10/24 11:04:15;;;;;;;0.00;0.00;;;;;;;40.24;16.15;98869.84;5095016;28;20023;-73
2023/10/24 11:06:51;;;;;;;0.00;0.00;;;;;;;35.30;20.13;98867.25;5098467;28;20445;-74
2023/10/24 11:09:20;;;;;;;0.00;0.00;;;;;;;31.50;24.79;98845.19;5083173;28;20027;-72
2023/10/24 11:11:46;;;;;;;0.00;0.00;;;;;;;29.17;28.29;98871.91;5093517;28;20080;-74
2023/10/24 11:14:19;;;;;;;0.00;0.00;;;;;;;27.37;30.21;98824.03;5096000;28;20039;-74
2023/10/24 11:16:49;;;;;;;0.00;0.00;;;;;;;26.45;31.80;98858.09;5091073;28;20028;-74
2023/10/24 11:19:22;;;;;;;0.00;0.00;;;;;;;25.63;33.05;98834.16;5089575;28;20373;-74
2023/10/24 11:21:55;;;;;;;0.00;0.00;;;;;;;24.31;34.95;98850.72;5075088;28;20431;-74
2023/10/24 11:24:29;;;;;;;0.00;0.00;;;;;;;23.14;36.11;98857.06;5109629;27;20070;-76
2023/10/24 11:27:08;;;;;;;;;;;;;;;;;;;;;
2023/10/24 11:29:37;;;;;;;0.00;0.00;;;;;;;22.67;39.29;98845.56;5094887;28;20422;-77
2023/10/24 11:32:03;;;;;;;0.00;0.00;;;;;;;22.89;38.72;98856.06;5056895;28;20093;-74
2023/10/24 11:34:31;;;;;;;0.00;0.00;;;;;;;22.55;38.22;98837.50;5088026;28;20104;-76
2023/10/24 11:36:57;;;;;;;0.00;0.00;;;;;;;25.17;36.10;98853.47;5088815;28;20696;-74
2023/10/24 11:39:26;;;;;;;0.00;0.00;;;;;;;29.80;28.93;98833.66;5087032;28;20035;-75